createdAt,value
2023-01-12T00:01:08.374Z,2.13
2023-01-12T00:03:35.064Z,3.13
2023-01-12T00:06:02.158Z,3.40
2023-01-12T00:08:29.206Z,2.97
2023-01-12T00:10:56.559Z,2.50
2023-01-12T00:13:23.323Z,2.53
2023-01-12T00:16:09.068Z,3.33
2023-01-12T00:18:35.760Z,2.78
2023-01-12T00:21:02.424Z,3.83
2023-01-12T00:23:29.484Z,2.85
2023-01-12T00:25:56.191Z,3.15
2023-01-12T00:30:48.181Z,2.30
2023-01-12T00:33:14.828Z,2.55
2023-01-12T00:35:41.582Z,2.63
2023-01-12T00:38:08.615Z,2.92
2023-01-12T00:40:36.750Z,2.72
2023-01-12T00:45:51.954Z,2.58
2023-01-12T00:48:18.655Z,2.63
2023-01-12T00:50:46.667Z,2.17
2023-01-12T00:53:13.760Z,2.30
2023-01-12T00:55:40.584Z,3.25
2023-01-12T00:58:07.362Z,2.65
2023-01-12T01:00:34.465Z,2.13
2023-01-12T01:03:01.184Z,2.92
2023-01-12T01:05:28.001Z,2.35
2023-01-12T01:07:54.695Z,1.95
2023-01-12T01:10:21.382Z,2.67
2023-01-12T01:12:48.032Z,2.22
2023-01-12T01:15:14.756Z,2.45
2023-01-12T01:17:41.632Z,2.33
2023-01-12T01:20:09.211Z,2.63
2023-01-12T01:22:35.923Z,3.13
2023-01-12T01:25:02.776Z,2.38
2023-01-12T01:27:29.461Z,2.35
2023-01-12T01:29:56.099Z,2.55
2023-01-12T01:34:48.353Z,2.22
2023-01-12T01:37:15.330Z,2.63
2023-01-12T01:39:42.010Z,2.28
2023-01-12T01:42:23.928Z,3.25
2023-01-12T01:44:53.673Z,2.22
2023-01-12T01:47:23.173Z,2.97
2023-01-12T01:49:53.416Z,1.98
2023-01-12T01:52:23.001Z,2.78
2023-01-12T01:54:58.561Z,2.95
2023-01-12T01:57:31.763Z,2.83
2023-01-12T01:59:59.916Z,2.05
2023-01-12T02:02:27.043Z,2.33
2023-01-12T02:04:56.054Z,2.53
2023-01-12T02:07:23.895Z,2.17
2023-01-12T02:09:50.846Z,2.55
2023-01-12T02:12:23.929Z,2.45
2023-01-12T02:15:10.543Z,1.88
2023-01-12T02:18:01.787Z,2.65
2023-01-12T02:20:49.710Z,2.53
2023-01-12T02:26:11.868Z,2.58
2023-01-12T02:29:06.612Z,2.00
2023-01-12T02:31:52.012Z,2.10
2023-01-12T02:34:24.825Z,2.67
2023-01-12T02:37:08.376Z,2.70
2023-01-12T02:39:45.128Z,1.90
2023-01-12T02:42:41.534Z,2.40
2023-01-12T02:45:21.519Z,2.40
2023-01-12T02:48:17.530Z,1.80
2023-01-12T02:50:59.556Z,2.20
2023-01-12T02:53:48.774Z,3.10
2023-01-12T02:56:23.096Z,2.80
2023-01-12T02:58:56.164Z,1.95
2023-01-12T03:01:23.101Z,2.00
2023-01-12T03:03:52.320Z,2.28
2023-01-12T03:06:19.398Z,1.88
2023-01-12T03:08:49.546Z,2.25
2023-01-12T03:11:19.403Z,2.28
2023-01-12T03:13:52.510Z,2.00
2023-01-12T03:16:23.993Z,2.17
2023-01-12T03:18:57.107Z,2.25
2023-01-12T03:21:24.243Z,1.92
2023-01-12T03:24:00.135Z,2.38
2023-01-12T03:26:28.576Z,2.40
2023-01-12T03:29:04.040Z,2.08
2023-01-12T03:31:31.230Z,2.28
2023-01-12T03:33:58.521Z,2.13
2023-01-12T03:36:36.338Z,2.97
2023-01-12T03:39:14.529Z,2.22
2023-01-12T03:41:56.644Z,2.63
2023-01-12T03:45:04.368Z,3.13
2023-01-12T03:47:33.971Z,2.60
2023-01-12T03:50:13.561Z,2.33
2023-01-12T03:52:43.303Z,2.88
2023-01-12T03:55:13.374Z,2.50
2023-01-12T03:57:40.674Z,2.30
2023-01-12T04:00:10.688Z,2.45
2023-01-12T04:02:37.429Z,2.03
2023-01-12T04:05:06.592Z,2.45
2023-01-12T04:07:33.303Z,2.03
2023-01-12T04:09:59.978Z,2.58
2023-01-12T04:12:26.768Z,3.42
2023-01-12T04:14:53.635Z,2.15
2023-01-12T04:17:23.984Z,1.95
2023-01-12T04:19:52.127Z,2.53
2023-01-12T04:22:23.984Z,2.13
2023-01-12T04:24:50.693Z,2.20
2023-01-12T04:27:17.890Z,1.90
2023-01-12T04:29:45.155Z,2.30
2023-01-12T04:32:12.148Z,2.40
2023-01-12T04:34:39.702Z,2.08
2023-01-12T04:37:06.624Z,2.55
2023-01-12T04:39:33.356Z,1.92
2023-01-12T04:42:00.041Z,1.80
2023-01-12T04:44:26.719Z,2.28
2023-01-12T04:46:53.367Z,2.60
2023-01-12T04:49:20.051Z,2.20
2023-01-12T04:51:46.987Z,2.58
2023-01-12T04:54:13.845Z,2.83
2023-01-12T04:56:40.831Z,2.58
2023-01-12T04:59:09.909Z,2.10
2023-01-12T05:01:41.664Z,2.05
2023-01-12T05:04:08.842Z,2.65
2023-01-12T05:06:35.644Z,2.58
2023-01-12T05:09:20.996Z,2.90
2023-01-12T05:11:47.810Z,2.30
2023-01-12T05:14:14.506Z,2.25
2023-01-12T05:16:41.214Z,3.33
2023-01-12T05:19:09.441Z,2.03
2023-01-12T05:21:36.224Z,2.45
2023-01-12T05:24:02.940Z,2.20
2023-01-12T05:26:29.753Z,2.95
2023-01-12T05:28:56.387Z,2.38
2023-01-12T05:31:24.071Z,2.10
2023-01-12T05:33:50.815Z,2.40
2023-01-12T05:36:18.005Z,2.42
2023-01-12T05:38:44.754Z,2.47
2023-01-12T05:41:14.612Z,2.40
2023-01-12T05:43:51.068Z,2.33
2023-01-12T05:46:23.154Z,2.30
2023-01-12T05:48:51.401Z,2.30
2023-01-12T05:51:18.468Z,2.15
2023-01-12T05:53:45.738Z,2.28
2023-01-12T05:56:21.539Z,1.88
2023-01-12T05:58:56.312Z,2.10
2023-01-12T06:01:24.044Z,2.50
2023-01-12T06:03:52.843Z,2.45
2023-01-12T06:06:20.918Z,2.13
2023-01-12T06:08:50.190Z,2.80
2023-01-12T06:11:24.031Z,2.17
2023-01-12T06:13:59.945Z,3.22
2023-01-12T06:16:28.295Z,2.60
2023-01-12T06:18:56.041Z,2.63
2023-01-12T06:21:24.099Z,2.17
2023-01-12T06:23:51.356Z,2.22
2023-01-12T06:26:18.028Z,2.67
2023-01-12T06:28:44.683Z,2.38
2023-01-12T06:31:13.099Z,3.15
2023-01-12T06:33:40.170Z,2.30
2023-01-12T06:36:07.875Z,2.28
2023-01-12T06:38:38.150Z,2.20
2023-01-12T06:41:06.976Z,2.78
2023-01-12T06:43:34.097Z,2.13
2023-01-12T06:46:00.993Z,2.78
2023-01-12T06:48:38.847Z,2.83
2023-01-12T06:51:06.596Z,2.40
2023-01-12T06:53:33.315Z,2.78
2023-01-12T06:56:00.053Z,2.72
2023-01-12T06:58:26.772Z,2.40
2023-01-12T07:00:53.563Z,2.38
2023-01-12T07:03:20.665Z,2.72
2023-01-12T07:05:47.410Z,3.05
2023-01-12T07:08:16.240Z,2.28
2023-01-12T07:10:43.398Z,3.42
2023-01-12T07:13:10.406Z,2.80
2023-01-12T07:15:38.147Z,2.05
2023-01-12T07:18:05.141Z,2.35
2023-01-12T07:20:32.519Z,2.15
2023-01-12T07:22:59.615Z,2.10
2023-01-12T07:25:27.152Z,2.97
2023-01-12T07:27:58.178Z,2.70
2023-01-12T07:30:26.013Z,2.47
2023-01-12T07:32:53.267Z,2.47
2023-01-12T07:35:20.033Z,2.25
2023-01-12T07:37:56.645Z,2.90
2023-01-12T07:40:24.405Z,2.15
2023-01-12T07:42:59.350Z,2.08
2023-01-12T07:45:26.479Z,2.58
2023-01-12T07:47:54.425Z,2.20
2023-01-12T07:50:24.180Z,2.90
2023-01-12T07:52:51.103Z,2.47
2023-01-12T07:55:19.779Z,2.38
2023-01-12T07:57:58.040Z,2.20
2023-01-12T08:00:26.174Z,2.78
2023-01-12T08:02:54.570Z,2.20
2023-01-12T08:07:49.218Z,1.77
2023-01-12T08:10:16.268Z,2.22
2023-01-12T08:12:43.018Z,1.92
2023-01-12T08:15:10.841Z,1.83
2023-01-12T08:18:00.285Z,1.98
2023-01-12T08:20:33.781Z,2.00
2023-01-12T08:23:09.236Z,2.13
2023-01-12T08:25:44.718Z,2.22
2023-01-12T08:28:17.478Z,2.20
2023-01-12T08:30:47.664Z,2.10
2023-01-12T08:33:15.301Z,2.78
2023-01-12T08:35:42.230Z,2.13
2023-01-12T08:38:10.429Z,2.20
2023-01-12T08:40:55.584Z,2.00
2023-01-12T08:43:24.136Z,1.65
2023-01-12T08:45:51.095Z,1.98
2023-01-12T08:48:19.887Z,3.00
2023-01-12T08:50:46.531Z,3.38
2023-01-12T08:53:13.217Z,2.35
2023-01-12T08:55:39.886Z,2.38
2023-01-12T08:58:06.548Z,2.25
2023-01-12T09:00:33.317Z,2.35
2023-01-12T09:03:01.371Z,2.00
2023-01-12T09:05:28.162Z,1.70
2023-01-12T09:07:54.809Z,2.10
2023-01-12T09:10:21.480Z,1.67
2023-01-12T09:12:48.177Z,3.00
2023-01-12T09:15:14.929Z,1.80
2023-01-12T09:17:41.727Z,1.92
2023-01-12T09:20:08.934Z,2.60
2023-01-12T09:22:35.590Z,3.30
2023-01-12T09:25:02.464Z,2.47
2023-01-12T09:27:29.129Z,2.22
2023-01-12T09:29:55.795Z,2.08
2023-01-12T09:34:49.996Z,2.22
2023-01-12T09:37:16.727Z,2.55
2023-01-12T09:39:43.494Z,2.30
2023-01-12T09:45:24.139Z,2.50
2023-01-12T09:47:56.394Z,2.30
2023-01-12T09:50:23.284Z,2.40
2023-01-12T09:53:02.802Z,3.35
2023-01-12T09:55:41.865Z,2.15
2023-01-12T09:58:24.265Z,2.35
2023-01-12T10:00:53.074Z,2.38
2023-01-12T10:03:24.335Z,2.00
2023-01-12T10:05:54.041Z,2.78
2023-01-12T10:08:24.299Z,1.70
2023-01-12T10:11:06.005Z,2.08
2023-01-12T10:13:54.454Z,1.98
2023-01-12T10:16:23.336Z,1.67
2023-01-12T10:18:56.665Z,2.25
2023-01-12T10:21:23.202Z,1.75
2023-01-12T10:23:53.731Z,1.75
2023-01-12T10:26:24.169Z,1.98
2023-01-12T10:28:55.204Z,1.83
2023-01-12T10:31:23.378Z,2.00
2023-01-12T10:34:11.199Z,2.10
2023-01-12T10:36:44.019Z,1.73
2023-01-12T10:39:23.232Z,2.13
2023-01-12T10:42:24.337Z,2.20
2023-01-12T10:45:12.806Z,1.85
2023-01-12T10:47:39.558Z,1.75
2023-01-12T10:50:24.378Z,1.80
2023-01-12T10:52:58.543Z,1.83
2023-01-12T10:55:30.665Z,1.52
2023-01-12T10:57:57.988Z,1.77
2023-01-12T11:00:27.397Z,2.08
2023-01-12T11:02:54.747Z,2.03
2023-01-12T11:05:24.237Z,2.10
2023-01-12T11:07:50.937Z,2.13
2023-01-12T11:10:24.324Z,1.88
2023-01-12T11:12:57.641Z,1.73
2023-01-12T11:15:25.191Z,2.95
2023-01-12T11:18:24.191Z,1.88
2023-01-12T11:20:57.199Z,2.17
2023-01-12T11:23:30.487Z,1.77
2023-01-12T11:26:01.602Z,2.63
2023-01-12T11:28:44.211Z,1.63
2023-01-12T11:31:24.299Z,1.83
2023-01-12T11:33:58.504Z,1.65
2023-01-12T11:36:29.385Z,2.20
2023-01-12T11:39:05.125Z,1.50
2023-01-12T11:42:06.185Z,1.35
2023-01-12T11:44:40.867Z,1.60
2023-01-12T11:47:14.744Z,1.92
2023-01-12T11:50:05.459Z,1.85
2023-01-12T11:52:33.174Z,2.42
2023-01-12T11:55:01.347Z,1.63
2023-01-12T11:57:30.671Z,1.50
2023-01-12T12:00:15.939Z,1.90
2023-01-12T12:02:49.854Z,2.00
2023-01-12T12:05:24.291Z,2.05
2023-01-12T12:08:07.286Z,1.55
2023-01-12T12:11:11.510Z,1.83
2023-01-12T12:13:50.487Z,1.60
2023-01-12T12:16:24.282Z,1.90
2023-01-12T12:19:02.987Z,2.00
2023-01-12T12:21:50.402Z,1.60
2023-01-12T12:24:24.240Z,1.40
2023-01-12T12:26:59.617Z,1.70
2023-01-12T12:29:50.410Z,2.03
2023-01-12T12:32:24.247Z,1.63
2023-01-12T12:35:18.928Z,1.70
2023-01-12T12:38:14.239Z,1.60
2023-01-12T12:41:10.908Z,1.65
2023-01-12T12:43:56.480Z,2.03
2023-01-12T12:46:24.338Z,1.80
2023-01-12T12:49:08.102Z,1.52
2023-01-12T12:51:36.571Z,1.13
2023-01-12T12:54:07.166Z,1.33
2023-01-12T12:56:36.911Z,1.90
2023-01-12T12:59:04.433Z,1.85
2023-01-12T13:01:31.332Z,1.48
2023-01-12T13:04:00.716Z,1.70
2023-01-12T13:06:31.668Z,1.77
2023-01-12T13:09:01.237Z,1.58
2023-01-12T13:11:46.633Z,1.60
2023-01-12T13:14:23.316Z,1.77
2023-01-12T13:16:52.920Z,1.33
2023-01-12T13:19:23.337Z,1.30
2023-01-12T13:22:17.884Z,1.38
2023-01-12T13:24:44.830Z,1.73
2023-01-12T13:27:24.345Z,1.40
2023-01-12T13:29:51.260Z,1.38
2023-01-12T13:32:24.384Z,1.45
2023-01-12T13:34:52.154Z,1.38
2023-01-12T13:37:18.817Z,1.35
2023-01-12T13:39:55.845Z,1.27
2023-01-12T13:44:49.137Z,1.52
2023-01-12T13:47:24.316Z,1.30
2023-01-12T13:49:59.021Z,1.23
2023-01-12T13:52:32.122Z,1.00
2023-01-12T13:55:00.110Z,1.17
2023-01-12T13:57:29.767Z,0.80
2023-01-12T14:00:08.902Z,1.10
2023-01-12T14:02:38.203Z,1.05
2023-01-12T14:05:24.327Z,1.00
2023-01-12T14:07:59.039Z,1.10
2023-01-12T14:10:28.630Z,1.00
2023-01-12T14:13:24.350Z,0.90
2023-01-12T14:16:19.298Z,0.88
2023-01-12T14:18:49.318Z,0.90
2023-01-12T14:21:24.355Z,1.10
2023-01-12T14:23:51.436Z,1.15
2023-01-12T14:26:24.302Z,0.80
2023-01-12T14:28:52.970Z,0.70
2023-01-12T14:31:24.325Z,0.93
2023-01-12T14:33:54.023Z,1.00
2023-01-12T14:36:24.349Z,1.30
2023-01-12T14:38:52.582Z,1.70
2023-01-12T14:41:23.404Z,1.73
2023-01-12T14:44:10.370Z,1.00
2023-01-12T14:46:53.405Z,0.95
2023-01-12T14:49:24.392Z,0.80
2023-01-12T14:51:53.656Z,1.20
2023-01-12T14:54:24.356Z,1.20
2023-01-12T14:56:59.276Z,1.00
2023-01-12T14:59:31.186Z,0.98
2023-01-12T15:02:13.285Z,0.93
2023-01-12T15:04:58.696Z,1.17
2023-01-12T15:07:30.501Z,1.10
2023-01-12T15:10:00.480Z,0.93
2023-01-12T15:12:30.355Z,1.20
2023-01-12T15:15:24.444Z,1.05
2023-01-12T15:18:13.985Z,1.00
2023-01-12T15:21:02.554Z,1.20
2023-01-12T15:23:51.021Z,1.00
2023-01-12T15:26:18.930Z,0.98
2023-01-12T15:28:46.346Z,1.10
2023-01-12T15:31:24.508Z,1.27
2023-01-12T15:33:51.775Z,1.08
2023-01-12T15:36:18.919Z,1.13
2023-01-12T15:38:45.635Z,1.00
2023-01-12T15:41:17.640Z,1.10
2023-01-12T15:43:44.350Z,1.30
2023-01-12T15:46:19.929Z,1.15
2023-01-12T15:48:46.571Z,1.08
2023-01-12T15:51:16.112Z,1.40
2023-01-12T15:53:42.991Z,1.27
2023-01-12T15:56:13.428Z,1.08
2023-01-12T15:58:40.116Z,1.48
2023-01-12T16:01:10.697Z,1.33
2023-01-12T16:04:25.262Z,1.10
2023-01-12T16:06:31.163Z,1.10
2023-01-12T16:08:58.605Z,1.10
2023-01-12T16:11:25.269Z,1.00
2023-01-12T16:13:51.991Z,1.38
2023-01-12T16:16:21.436Z,1.00
2023-01-12T16:18:48.759Z,1.23
2023-01-12T16:21:18.002Z,1.17
2023-01-12T16:23:45.636Z,1.20
2023-01-12T16:26:12.522Z,0.90
2023-01-12T16:28:39.407Z,1.20
2023-01-12T16:31:07.893Z,1.50
2023-01-12T16:33:34.565Z,1.33
2023-01-12T16:36:02.147Z,1.23
2023-01-12T16:38:29.001Z,1.00
2023-01-12T16:40:55.893Z,1.15
2023-01-12T16:43:24.375Z,2.30
2023-01-12T16:45:51.980Z,1.75
2023-01-12T16:48:19.546Z,2.20
2023-01-12T16:50:46.309Z,1.35
2023-01-12T16:53:13.284Z,1.30
2023-01-12T16:55:40.183Z,1.90
2023-01-12T16:58:08.873Z,1.42
2023-01-12T17:00:36.078Z,2.42
2023-01-12T17:03:03.478Z,1.33
2023-01-12T17:05:31.584Z,1.92
2023-01-12T17:07:58.472Z,1.70
2023-01-12T17:10:25.488Z,1.60
2023-01-12T17:12:55.493Z,1.50
2023-01-12T17:15:24.660Z,1.50
2023-01-12T17:17:51.639Z,2.92
2023-01-12T17:20:19.995Z,2.45
2023-01-12T17:22:48.186Z,1.88
2023-01-12T17:25:19.003Z,2.60
2023-01-12T17:27:45.758Z,2.38
2023-01-12T17:30:12.869Z,2.60
2023-01-12T17:32:39.955Z,1.90
2023-01-12T17:35:09.570Z,3.13
2023-01-12T17:37:37.056Z,2.13
2023-01-12T17:40:04.604Z,1.50
2023-01-12T17:42:50.188Z,1.52
2023-01-12T17:45:17.021Z,1.20
2023-01-12T17:47:43.721Z,1.95
2023-01-12T17:50:11.321Z,1.42
2023-01-12T17:52:37.993Z,2.05
2023-01-12T17:55:05.102Z,1.35
2023-01-12T17:57:31.799Z,1.58
2023-01-12T17:59:58.679Z,2.55
2023-01-12T18:02:25.526Z,1.60
2023-01-12T18:04:52.504Z,1.67
2023-01-12T18:07:19.765Z,1.67
2023-01-12T18:09:46.454Z,0.90
2023-01-12T18:12:13.312Z,1.27
2023-01-12T18:14:40.091Z,1.30
2023-01-12T18:17:09.350Z,1.08
2023-01-12T18:19:36.101Z,1.20
2023-01-12T18:22:07.264Z,1.80
2023-01-12T18:24:35.920Z,1.52
2023-01-12T18:27:02.969Z,1.35
2023-01-12T18:29:29.768Z,2.00
2023-01-12T18:31:56.486Z,1.63
2023-01-12T18:36:49.040Z,1.50
2023-01-12T18:39:24.546Z,1.17
2023-01-12T18:42:09.721Z,1.40
2023-01-12T18:44:40.399Z,1.33
2023-01-12T18:49:54.455Z,1.60
2023-01-12T18:54:51.842Z,1.73
2023-01-12T18:59:51.815Z,1.13
2023-01-12T19:02:19.903Z,1.33
2023-01-12T19:04:50.256Z,1.55
2023-01-12T19:07:17.994Z,1.30
2023-01-12T19:09:44.708Z,1.13
2023-01-12T19:12:11.392Z,1.50
2023-01-12T19:14:56.759Z,1.40
2023-01-12T19:17:24.536Z,1.50
2023-01-12T19:19:51.287Z,1.20
2023-01-12T19:22:24.463Z,1.67
2023-01-12T19:25:09.816Z,1.58
2023-01-12T19:27:55.277Z,1.33
2023-01-12T19:30:24.524Z,1.75
2023-01-12T19:32:52.332Z,1.70
2023-01-12T19:35:19.407Z,1.70
2023-01-12T19:37:51.304Z,1.40
2023-01-12T19:40:24.525Z,1.33
2023-01-12T19:43:09.978Z,1.30
2023-01-12T19:45:38.499Z,1.70
2023-01-12T19:48:06.060Z,1.55
2023-01-12T19:50:32.774Z,1.42
2023-01-12T19:53:00.236Z,1.33
2023-01-12T19:55:27.544Z,1.45
2023-01-12T19:57:54.812Z,1.60
2023-01-12T20:00:21.834Z,0.90
2023-01-12T20:02:48.734Z,1.00
2023-01-12T20:07:50.479Z,0.93
2023-01-12T20:10:19.872Z,1.40
2023-01-12T20:12:46.802Z,1.35
2023-01-12T20:15:15.357Z,1.23
2023-01-12T20:17:42.614Z,1.05
2023-01-12T20:20:12.223Z,1.80
2023-01-12T20:22:39.166Z,1.65
2023-01-12T20:25:07.125Z,1.30
2023-01-12T20:27:35.956Z,1.10
2023-01-12T20:30:03.986Z,1.20
2023-01-12T20:32:31.957Z,1.00
2023-01-12T20:35:02.378Z,1.10
2023-01-12T20:37:29.100Z,1.30
2023-01-12T20:39:56.983Z,1.23
2023-01-12T20:42:24.673Z,1.30
2023-01-12T20:44:51.764Z,1.20
2023-01-12T20:49:49.017Z,1.10
2023-01-12T20:52:15.876Z,1.30
2023-01-12T20:54:43.178Z,1.20
2023-01-12T20:57:10.408Z,1.15
2023-01-12T20:59:38.102Z,0.95
2023-01-12T21:02:05.487Z,1.20
2023-01-12T21:04:33.029Z,1.30
2023-01-12T21:07:00.787Z,1.10
2023-01-12T21:09:27.515Z,0.93
2023-01-12T21:11:54.461Z,1.30
2023-01-12T21:16:49.570Z,1.00
2023-01-12T21:19:16.361Z,1.10
2023-01-12T21:21:43.172Z,1.05
2023-01-12T21:24:10.791Z,0.90
2023-01-12T21:26:37.751Z,1.20
2023-01-12T21:29:05.014Z,1.42
2023-01-12T21:31:31.989Z,1.17
2023-01-12T21:33:58.749Z,1.20
2023-01-12T21:36:25.620Z,1.10
2023-01-12T21:38:53.803Z,1.20
2023-01-12T21:41:21.935Z,1.00
2023-01-12T21:43:50.454Z,1.08
2023-01-12T21:46:18.724Z,1.15
2023-01-12T21:48:46.581Z,1.58
2023-01-12T21:51:16.491Z,0.90
2023-01-12T21:53:43.574Z,1.10
2023-01-12T21:56:12.468Z,0.90
2023-01-12T21:58:40.004Z,1.15
2023-01-12T22:01:12.058Z,1.10
2023-01-12T22:03:39.639Z,0.90
2023-01-12T22:06:11.820Z,1.15
2023-01-12T22:08:41.093Z,1.05
2023-01-12T22:11:12.584Z,1.23
2023-01-12T22:13:39.652Z,1.42
2023-01-12T22:16:09.414Z,0.95
2023-01-12T22:18:37.431Z,1.10
2023-01-12T22:21:06.889Z,1.45
2023-01-12T22:23:38.204Z,0.93
2023-01-12T22:26:09.297Z,1.05
2023-01-12T22:28:39.937Z,1.52
2023-01-12T22:31:24.664Z,0.90
2023-01-12T22:34:03.162Z,1.10
2023-01-12T22:36:34.619Z,1.23
2023-01-12T22:39:01.782Z,1.08
2023-01-12T22:41:28.801Z,1.27
2023-01-12T22:43:58.264Z,1.60
2023-01-12T22:46:26.608Z,1.25
2023-01-12T22:48:55.581Z,1.13
2023-01-12T22:51:24.561Z,1.30
2023-01-12T22:53:52.440Z,1.27
2023-01-12T22:56:19.393Z,0.90
2023-01-12T22:58:51.471Z,1.05
2023-01-12T23:01:20.114Z,1.10
2023-01-12T23:03:48.472Z,0.80
2023-01-12T23:06:17.299Z,1.17
2023-01-12T23:08:45.501Z,1.48
2023-01-12T23:11:13.443Z,1.00
2023-01-12T23:13:41.131Z,0.90
2023-01-12T23:16:09.800Z,1.48
2023-01-12T23:18:40.467Z,1.00
2023-01-12T23:21:14.364Z,0.90
2023-01-12T23:23:46.485Z,1.10
2023-01-12T23:26:15.781Z,1.20
2023-01-12T23:28:47.583Z,1.75
2023-01-12T23:31:19.258Z,1.30
2023-01-12T23:33:46.381Z,0.95
2023-01-12T23:36:24.822Z,1.05
2023-01-12T23:39:01.934Z,1.35
2023-01-12T23:41:30.272Z,1.40
2023-01-12T23:43:59.647Z,1.30
2023-01-12T23:46:28.405Z,1.25
2023-01-12T23:48:57.078Z,1.17
2023-01-12T23:51:23.923Z,1.00
2023-01-12T23:54:01.685Z,1.30
2023-01-12T23:56:30.606Z,1.10
2023-01-12T23:58:58.308Z,1.13
